sensor_id;sensor_type;location;lat;lon;timestamp;P1;durP1;ratioP1;P2;durP2;ratioP2
33413;SDS011;60055;41.884;12.534;2023-04-24T00:00:21;13.38;;;3.83;;
33413;SDS011;60055;41.884;12.534;2023-04-24T00:02:46;9.18;;;3.25;;
33413;SDS011;60055;41.884;12.534;2023-04-24T00:05:15;12.48;;;3.38;;
33413;SDS011;60055;41.884;12.534;2023-04-24T00:07:42;10.70;;;3.30;;
33413;SDS011;60055;41.884;12.534;2023-04-24T00:10:09;11.10;;;3.42;;
33413;SDS011;60055;41.884;12.534;2023-04-24T00:12:35;11.00;;;3.45;;
33413;SDS011;60055;41.884;12.534;2023-04-24T00:15:01;11.60;;;3.35;;
33413;SDS011;60055;41.884;12.534;2023-04-24T00:17:27;12.43;;;3.30;;
33413;SDS011;60055;41.884;12.534;2023-04-24T00:19:52;14.40;;;3.47;;
33413;SDS011;60055;41.884;12.534;2023-04-24T00:22:23;15.75;;;3.20;;
33413;SDS011;60055;41.884;12.534;2023-04-24T00:24:49;14.25;;;3.50;;
33413;SDS011;60055;41.884;12.534;2023-04-24T00:27:15;13.55;;;3.50;;
33413;SDS011;60055;41.884;12.534;2023-04-24T00:29:40;10.07;;;2.92;;
33413;SDS011;60055;41.884;12.534;2023-04-24T00:32:05;12.27;;;3.28;;
33413;SDS011;60055;41.884;12.534;2023-04-24T00:34:31;11.20;;;2.80;;
33413;SDS011;60055;41.884;12.534;2023-04-24T00:36:57;10.68;;;3.53;;
33413;SDS011;60055;41.884;12.534;2023-04-24T00:39:23;9.38;;;3.00;;
33413;SDS011;60055;41.884;12.534;2023-04-24T00:41:48;14.23;;;2.97;;
33413;SDS011;60055;41.884;12.534;2023-04-24T00:44:14;10.25;;;3.03;;
33413;SDS011;60055;41.884;12.534;2023-04-24T00:46:40;13.10;;;3.40;;
33413;SDS011;60055;41.884;12.534;2023-04-24T00:49:06;16.35;;;3.25;;
33413;SDS011;60055;41.884;12.534;2023-04-24T00:51:31;10.07;;;3.20;;
33413;SDS011;60055;41.884;12.534;2023-04-24T00:53:58;11.70;;;3.40;;
33413;SDS011;60055;41.884;12.534;2023-04-24T00:56:25;14.75;;;3.80;;
33413;SDS011;60055;41.884;12.534;2023-04-24T00:58:50;9.95;;;3.55;;
33413;SDS011;60055;41.884;12.534;2023-04-24T01:01:16;12.82;;;3.70;;
33413;SDS011;60055;41.884;12.534;2023-04-24T01:03:43;14.25;;;3.70;;
33413;SDS011;60055;41.884;12.534;2023-04-24T01:06:09;13.30;;;3.65;;
33413;SDS011;60055;41.884;12.534;2023-04-24T01:08:35;13.25;;;3.75;;
33413;SDS011;60055;41.884;12.534;2023-04-24T01:11:01;12.40;;;3.45;;
33413;SDS011;60055;41.884;12.534;2023-04-24T01:13:28;12.05;;;3.75;;
33413;SDS011;60055;41.884;12.534;2023-04-24T01:15:54;11.85;;;3.20;;
33413;SDS011;60055;41.884;12.534;2023-04-24T01:18:19;8.10;;;3.20;;
33413;SDS011;60055;41.884;12.534;2023-04-24T01:20:46;12.73;;;3.55;;
33413;SDS011;60055;41.884;12.534;2023-04-24T01:23:18;14.43;;;3.72;;
33413;SDS011;60055;41.884;12.534;2023-04-24T01:25:43;10.80;;;3.90;;
33413;SDS011;60055;41.884;12.534;2023-04-24T01:28:09;10.13;;;3.42;;
33413;SDS011;60055;41.884;12.534;2023-04-24T01:30:35;11.80;;;3.85;;
33413;SDS011;60055;41.884;12.534;2023-04-24T01:33:00;12.45;;;3.42;;
33413;SDS011;60055;41.884;12.534;2023-04-24T01:35:26;11.32;;;3.28;;
33413;SDS011;60055;41.884;12.534;2023-04-24T01:37:51;11.13;;;3.38;;
33413;SDS011;60055;41.884;12.534;2023-04-24T01:40:17;14.52;;;3.85;;
33413;SDS011;60055;41.884;12.534;2023-04-24T01:42:42;14.38;;;3.67;;
33413;SDS011;60055;41.884;12.534;2023-04-24T01:45:09;14.18;;;3.47;;
33413;SDS011;60055;41.884;12.534;2023-04-24T01:47:35;11.02;;;3.42;;
33413;SDS011;60055;41.884;12.534;2023-04-24T01:50:01;11.52;;;3.40;;
33413;SDS011;60055;41.884;12.534;2023-04-24T01:52:27;13.40;;;3.40;;
33413;SDS011;60055;41.884;12.534;2023-04-24T01:54:53;13.80;;;3.55;;
33413;SDS011;60055;41.884;12.534;2023-04-24T01:57:20;8.85;;;3.05;;
33413;SDS011;60055;41.884;12.534;2023-04-24T01:59:46;13.73;;;3.35;;
33413;SDS011;60055;41.884;12.534;2023-04-24T02:02:11;11.45;;;3.30;;
33413;SDS011;60055;41.884;12.534;2023-04-24T02:04:39;11.15;;;3.22;;
33413;SDS011;60055;41.884;12.534;2023-04-24T02:07:05;15.02;;;3.00;;
33413;SDS011;60055;41.884;12.534;2023-04-24T02:09:30;11.57;;;3.35;;
33413;SDS011;60055;41.884;12.534;2023-04-24T02:11:56;12.25;;;3.10;;
33413;SDS011;60055;41.884;12.534;2023-04-24T02:14:21;13.00;;;3.13;;
33413;SDS011;60055;41.884;12.534;2023-04-24T02:16:46;9.00;;;3.20;;
33413;SDS011;60055;41.884;12.534;2023-04-24T02:19:12;13.40;;;3.10;;
33413;SDS011;60055;41.884;12.534;2023-04-24T02:21:37;10.15;;;3.15;;
33413;SDS011;60055;41.884;12.534;2023-04-24T02:24:03;13.32;;;3.47;;
33413;SDS011;60055;41.884;12.534;2023-04-24T02:26:28;12.73;;;3.60;;
33413;SDS011;60055;41.884;12.534;2023-04-24T02:28:54;12.38;;;3.42;;
33413;SDS011;60055;41.884;12.534;2023-04-24T02:31:20;13.60;;;3.20;;
33413;SDS011;60055;41.884;12.534;2023-04-24T02:33:46;9.32;;;3.10;;
33413;SDS011;60055;41.884;12.534;2023-04-24T02:36:11;13.63;;;3.95;;
33413;SDS011;60055;41.884;12.534;2023-04-24T02:38:36;13.43;;;3.53;;
33413;SDS011;60055;41.884;12.534;2023-04-24T02:41:02;10.82;;;3.15;;
33413;SDS011;60055;41.884;12.534;2023-04-24T02:43:31;8.05;;;3.30;;
33413;SDS011;60055;41.884;12.534;2023-04-24T02:45:56;14.00;;;4.28;;
33413;SDS011;60055;41.884;12.534;2023-04-24T02:48:21;8.68;;;3.20;;
33413;SDS011;60055;41.884;12.534;2023-04-24T02:50:47;11.82;;;3.50;;
33413;SDS011;60055;41.884;12.534;2023-04-24T02:53:12;10.57;;;3.25;;
33413;SDS011;60055;41.884;12.534;2023-04-24T02:55:38;12.07;;;3.63;;
33413;SDS011;60055;41.884;12.534;2023-04-24T02:58:03;10.55;;;3.70;;
33413;SDS011;60055;41.884;12.534;2023-04-24T03:00:28;15.45;;;3.85;;
33413;SDS011;60055;41.884;12.534;2023-04-24T03:02:54;11.00;;;3.63;;
33413;SDS011;60055;41.884;12.534;2023-04-24T03:05:20;14.50;;;3.90;;
33413;SDS011;60055;41.884;12.534;2023-04-24T03:07:46;11.43;;;3.30;;
33413;SDS011;60055;41.884;12.534;2023-04-24T03:10:11;9.93;;;3.55;;
33413;SDS011;60055;41.884;12.534;2023-04-24T03:12:36;12.10;;;3.60;;
33413;SDS011;60055;41.884;12.534;2023-04-24T03:15:02;9.18;;;3.72;;
33413;SDS011;60055;41.884;12.534;2023-04-24T03:17:28;15.40;;;3.88;;
33413;SDS011;60055;41.884;12.534;2023-04-24T03:19:53;13.77;;;3.42;;
33413;SDS011;60055;41.884;12.534;2023-04-24T03:22:19;14.60;;;4.18;;
33413;SDS011;60055;41.884;12.534;2023-04-24T03:24:44;14.80;;;4.20;;
33413;SDS011;60055;41.884;12.534;2023-04-24T03:27:10;12.05;;;4.10;;
33413;SDS011;60055;41.884;12.534;2023-04-24T03:29:35;10.18;;;4.32;;
33413;SDS011;60055;41.884;12.534;2023-04-24T03:32:00;15.43;;;4.20;;
33413;SDS011;60055;41.884;12.534;2023-04-24T03:34:26;11.23;;;3.85;;
33413;SDS011;60055;41.884;12.534;2023-04-24T03:36:51;10.13;;;4.00;;
33413;SDS011;60055;41.884;12.534;2023-04-24T03:39:17;17.85;;;4.57;;
33413;SDS011;60055;41.884;12.534;2023-04-24T03:41:43;22.27;;;4.55;;
33413;SDS011;60055;41.884;12.534;2023-04-24T03:44:08;17.15;;;4.00;;
33413;SDS011;60055;41.884;12.534;2023-04-24T03:46:33;11.63;;;4.28;;
33413;SDS011;60055;41.884;12.534;2023-04-24T03:48:59;15.50;;;4.60;;
33413;SDS011;60055;41.884;12.534;2023-04-24T03:51:24;12.98;;;4.65;;
33413;SDS011;60055;41.884;12.534;2023-04-24T03:53:52;15.07;;;4.53;;
33413;SDS011;60055;41.884;12.534;2023-04-24T03:56:18;12.70;;;4.25;;
33413;SDS011;60055;41.884;12.534;2023-04-24T03:58:43;11.80;;;4.38;;
33413;SDS011;60055;41.884;12.534;2023-04-24T04:01:09;17.65;;;4.38;;
33413;SDS011;60055;41.884;12.534;2023-04-24T04:03:35;20.63;;;4.22;;
33413;SDS011;60055;41.884;12.534;2023-04-24T04:06:00;14.80;;;4.28;;
33413;SDS011;60055;41.884;12.534;2023-04-24T04:08:26;14.13;;;4.18;;
33413;SDS011;60055;41.884;12.534;2023-04-24T04:10:51;12.43;;;4.13;;
33413;SDS011;60055;41.884;12.534;2023-04-24T04:13:17;11.25;;;4.28;;
33413;SDS011;60055;41.884;12.534;2023-04-24T04:15:42;16.75;;;4.50;;
33413;SDS011;60055;41.884;12.534;2023-04-24T04:18:08;13.27;;;4.50;;
33413;SDS011;60055;41.884;12.534;2023-04-24T04:20:36;14.65;;;4.57;;
33413;SDS011;60055;41.884;12.534;2023-04-24T04:23:01;13.43;;;4.47;;
33413;SDS011;60055;41.884;12.534;2023-04-24T04:25:27;12.40;;;4.68;;
33413;SDS011;60055;41.884;12.534;2023-04-24T04:27:52;14.02;;;5.07;;
33413;SDS011;60055;41.884;12.534;2023-04-24T04:30:18;11.60;;;4.50;;
33413;SDS011;60055;41.884;12.534;2023-04-24T04:32:45;17.20;;;4.68;;
33413;SDS011;60055;41.884;12.534;2023-04-24T04:35:11;13.63;;;4.88;;
33413;SDS011;60055;41.884;12.534;2023-04-24T04:37:36;15.93;;;4.80;;
33413;SDS011;60055;41.884;12.534;2023-04-24T04:40:03;10.75;;;4.32;;
33413;SDS011;60055;41.884;12.534;2023-04-24T04:42:31;12.38;;;4.97;;
33413;SDS011;60055;41.884;12.534;2023-04-24T04:44:59;12.50;;;4.60;;
33413;SDS011;60055;41.884;12.534;2023-04-24T04:47:25;12.57;;;4.55;;
33413;SDS011;60055;41.884;12.534;2023-04-24T04:49:52;14.30;;;4.78;;
33413;SDS011;60055;41.884;12.534;2023-04-24T04:52:17;13.65;;;4.78;;
33413;SDS011;60055;41.884;12.534;2023-04-24T04:54:43;10.15;;;4.82;;
33413;SDS011;60055;41.884;12.534;2023-04-24T04:57:08;15.30;;;4.57;;
33413;SDS011;60055;41.884;12.534;2023-04-24T04:59:34;16.13;;;5.10;;
33413;SDS011;60055;41.884;12.534;2023-04-24T05:01:59;9.20;;;3.95;;
33413;SDS011;60055;41.884;12.534;2023-04-24T05:04:25;17.55;;;4.95;;
33413;SDS011;60055;41.884;12.534;2023-04-24T05:06:51;16.65;;;5.82;;
33413;SDS011;60055;41.884;12.534;2023-04-24T05:09:17;14.57;;;6.07;;
33413;SDS011;60055;41.884;12.534;2023-04-24T05:11:42;19.80;;;5.40;;
33413;SDS011;60055;41.884;12.534;2023-04-24T05:14:08;17.90;;;5.40;;
33413;SDS011;60055;41.884;12.534;2023-04-24T05:16:33;20.65;;;6.15;;
33413;SDS011;60055;41.884;12.534;2023-04-24T05:18:58;20.15;;;5.97;;
33413;SDS011;60055;41.884;12.534;2023-04-24T05:21:24;13.75;;;5.13;;
33413;SDS011;60055;41.884;12.534;2023-04-24T05:23:50;11.45;;;5.35;;
33413;SDS011;60055;41.884;12.534;2023-04-24T05:26:15;13.93;;;5.32;;
33413;SDS011;60055;41.884;12.534;2023-04-24T05:28:41;13.63;;;5.00;;
33413;SDS011;60055;41.884;12.534;2023-04-24T05:31:06;16.35;;;5.40;;
33413;SDS011;60055;41.884;12.534;2023-04-24T05:33:31;30.20;;;11.68;;
33413;SDS011;60055;41.884;12.534;2023-04-24T05:35:57;12.55;;;6.13;;
33413;SDS011;60055;41.884;12.534;2023-04-24T05:38:22;17.15;;;5.60;;
33413;SDS011;60055;41.884;12.534;2023-04-24T05:40:48;16.02;;;5.57;;
33413;SDS011;60055;41.884;12.534;2023-04-24T05:43:13;12.32;;;5.22;;
33413;SDS011;60055;41.884;12.534;2023-04-24T05:45:39;13.98;;;5.22;;
33413;SDS011;60055;41.884;12.534;2023-04-24T05:48:04;15.93;;;5.78;;
33413;SDS011;60055;41.884;12.534;2023-04-24T05:50:30;18.83;;;5.60;;
33413;SDS011;60055;41.884;12.534;2023-04-24T05:52:56;13.43;;;5.10;;
33413;SDS011;60055;41.884;12.534;2023-04-24T05:55:25;15.32;;;5.75;;
33413;SDS011;60055;41.884;12.534;2023-04-24T05:57:50;20.27;;;5.20;;
33413;SDS011;60055;41.884;12.534;2023-04-24T06:00:16;18.08;;;5.97;;
33413;SDS011;60055;41.884;12.534;2023-04-24T06:02:44;16.35;;;5.90;;
33413;SDS011;60055;41.884;12.534;2023-04-24T06:05:10;19.55;;;5.43;;
33413;SDS011;60055;41.884;12.534;2023-04-24T06:07:36;15.02;;;5.60;;
33413;SDS011;60055;41.884;12.534;2023-04-24T06:10:01;15.90;;;5.65;;
33413;SDS011;60055;41.884;12.534;2023-04-24T06:12:27;19.48;;;6.20;;
33413;SDS011;60055;41.884;12.534;2023-04-24T06:14:52;12.15;;;5.75;;
33413;SDS011;60055;41.884;12.534;2023-04-24T06:17:19;14.25;;;5.60;;
33413;SDS011;60055;41.884;12.534;2023-04-24T06:19:44;16.15;;;5.50;;
33413;SDS011;60055;41.884;12.534;2023-04-24T06:22:10;12.98;;;5.72;;
33413;SDS011;60055;41.884;12.534;2023-04-24T06:24:35;15.18;;;6.25;;
33413;SDS011;60055;41.884;12.534;2023-04-24T06:27:01;20.92;;;6.85;;
33413;SDS011;60055;41.884;12.534;2023-04-24T06:29:26;13.68;;;5.75;;
33413;SDS011;60055;41.884;12.534;2023-04-24T06:31:52;20.50;;;6.68;;
33413;SDS011;60055;41.884;12.534;2023-04-24T06:34:18;19.70;;;6.13;;
33413;SDS011;60055;41.884;12.534;2023-04-24T06:36:43;14.77;;;6.10;;
33413;SDS011;60055;41.884;12.534;2023-04-24T06:39:09;18.83;;;6.78;;
33413;SDS011;60055;41.884;12.534;2023-04-24T06:41:34;21.45;;;6.47;;
33413;SDS011;60055;41.884;12.534;2023-04-24T06:44:00;22.00;;;7.25;;
33413;SDS011;60055;41.884;12.534;2023-04-24T06:46:26;17.63;;;6.32;;
33413;SDS011;60055;41.884;12.534;2023-04-24T06:48:52;21.67;;;6.85;;
33413;SDS011;60055;41.884;12.534;2023-04-24T06:51:24;21.10;;;6.93;;
33413;SDS011;60055;41.884;12.534;2023-04-24T06:53:51;17.85;;;6.72;;
33413;SDS011;60055;41.884;12.534;2023-04-24T06:56:17;25.60;;;7.53;;
33413;SDS011;60055;41.884;12.534;2023-04-24T06:58:43;21.30;;;7.25;;
33413;SDS011;60055;41.884;12.534;2023-04-24T07:01:09;16.38;;;6.70;;
33413;SDS011;60055;41.884;12.534;2023-04-24T07:03:35;14.32;;;6.28;;
33413;SDS011;60055;41.884;12.534;2023-04-24T07:06:00;18.30;;;7.32;;
33413;SDS011;60055;41.884;12.534;2023-04-24T07:08:26;17.83;;;6.38;;
33413;SDS011;60055;41.884;12.534;2023-04-24T07:10:51;19.42;;;6.47;;
33413;SDS011;60055;41.884;12.534;2023-04-24T07:13:17;16.42;;;7.50;;
33413;SDS011;60055;41.884;12.534;2023-04-24T07:15:42;23.05;;;7.78;;
33413;SDS011;60055;41.884;12.534;2023-04-24T07:18:08;23.15;;;7.75;;
33413;SDS011;60055;41.884;12.534;2023-04-24T07:20:34;21.63;;;7.13;;
33413;SDS011;60055;41.884;12.534;2023-04-24T07:22:59;23.33;;;7.18;;
33413;SDS011;60055;41.884;12.534;2023-04-24T07:25:25;28.40;;;7.22;;
33413;SDS011;60055;41.884;12.534;2023-04-24T07:27:50;21.45;;;7.45;;
33413;SDS011;60055;41.884;12.534;2023-04-24T07:30:15;28.63;;;7.30;;
33413;SDS011;60055;41.884;12.534;2023-04-24T07:32:41;26.27;;;8.38;;
33413;SDS011;60055;41.884;12.534;2023-04-24T07:35:06;23.55;;;7.65;;
33413;SDS011;60055;41.884;12.534;2023-04-24T07:37:34;25.80;;;8.52;;
33413;SDS011;60055;41.884;12.534;2023-04-24T07:39:59;23.02;;;7.80;;
33413;SDS011;60055;41.884;12.534;2023-04-24T07:42:25;29.15;;;7.65;;
33413;SDS011;60055;41.884;12.534;2023-04-24T07:44:50;31.88;;;8.55;;
33413;SDS011;60055;41.884;12.534;2023-04-24T07:47:16;25.75;;;8.23;;
33413;SDS011;60055;41.884;12.534;2023-04-24T07:49:41;18.20;;;7.55;;
33413;SDS011;60055;41.884;12.534;2023-04-24T07:52:07;19.55;;;7.07;;
33413;SDS011;60055;41.884;12.534;2023-04-24T07:54:33;19.10;;;6.60;;
33413;SDS011;60055;41.884;12.534;2023-04-24T07:56:58;22.23;;;6.63;;
33413;SDS011;60055;41.884;12.534;2023-04-24T07:59:24;25.85;;;6.78;;
33413;SDS011;60055;41.884;12.534;2023-04-24T08:01:49;20.88;;;6.82;;
33413;SDS011;60055;41.884;12.534;2023-04-24T08:04:14;25.40;;;6.20;;
33413;SDS011;60055;41.884;12.534;2023-04-24T08:06:40;23.38;;;5.78;;
33413;SDS011;60055;41.884;12.534;2023-04-24T08:09:05;29.48;;;6.25;;
33413;SDS011;60055;41.884;12.534;2023-04-24T08:11:31;30.58;;;6.32;;
33413;SDS011;60055;41.884;12.534;2023-04-24T08:13:57;23.92;;;5.75;;
33413;SDS011;60055;41.884;12.534;2023-04-24T08:16:22;22.80;;;5.57;;
33413;SDS011;60055;41.884;12.534;2023-04-24T08:18:48;23.63;;;5.10;;
33413;SDS011;60055;41.884;12.534;2023-04-24T08:21:15;24.42;;;5.72;;
33413;SDS011;60055;41.884;12.534;2023-04-24T08:23:42;21.08;;;5.30;;
33413;SDS011;60055;41.884;12.534;2023-04-24T08:26:08;20.10;;;5.20;;
33413;SDS011;60055;41.884;12.534;2023-04-24T08:28:33;27.50;;;5.32;;
33413;SDS011;60055;41.884;12.534;2023-04-24T08:30:59;21.65;;;5.35;;
33413;SDS011;60055;41.884;12.534;2023-04-24T08:33:24;20.38;;;5.63;;
33413;SDS011;60055;41.884;12.534;2023-04-24T08:35:50;23.33;;;5.25;;
33413;SDS011;60055;41.884;12.534;2023-04-24T08:38:16;24.77;;;5.80;;
33413;SDS011;60055;41.884;12.534;2023-04-24T08:40:41;26.58;;;5.20;;
33413;SDS011;60055;41.884;12.534;2023-04-24T08:43:08;22.67;;;5.47;;
33413;SDS011;60055;41.884;12.534;2023-04-24T08:45:35;30.20;;;5.65;;
33413;SDS011;60055;41.884;12.534;2023-04-24T08:48:01;29.92;;;5.65;;
33413;SDS011;60055;41.884;12.534;2023-04-24T08:50:27;27.45;;;5.50;;
33413;SDS011;60055;41.884;12.534;2023-04-24T08:52:54;20.33;;;5.72;;
33413;SDS011;60055;41.884;12.534;2023-04-24T08:55:20;25.70;;;5.80;;
33413;SDS011;60055;41.884;12.534;2023-04-24T08:57:49;20.08;;;4.60;;
33413;SDS011;60055;41.884;12.534;2023-04-24T09:00:17;27.60;;;5.30;;
33413;SDS011;60055;41.884;12.534;2023-04-24T09:02:44;21.60;;;5.25;;
33413;SDS011;60055;41.884;12.534;2023-04-24T09:05:12;30.50;;;5.60;;
33413;SDS011;60055;41.884;12.534;2023-04-24T09:07:39;26.20;;;5.40;;
33413;SDS011;60055;41.884;12.534;2023-04-24T09:10:09;27.95;;;5.43;;
33413;SDS011;60055;41.884;12.534;2023-04-24T09:12:35;22.80;;;5.63;;
33413;SDS011;60055;41.884;12.534;2023-04-24T09:15:02;29.27;;;6.13;;
33413;SDS011;60055;41.884;12.534;2023-04-24T09:17:29;24.92;;;6.13;;
33413;SDS011;60055;41.884;12.534;2023-04-24T09:19:55;21.13;;;5.53;;
33413;SDS011;60055;41.884;12.534;2023-04-24T09:22:21;21.70;;;5.07;;
33413;SDS011;60055;41.884;12.534;2023-04-24T09:24:46;20.30;;;5.15;;
33413;SDS011;60055;41.884;12.534;2023-04-24T09:27:12;25.27;;;5.22;;
33413;SDS011;60055;41.884;12.534;2023-04-24T09:29:39;26.10;;;5.60;;
33413;SDS011;60055;41.884;12.534;2023-04-24T09:32:19;19.67;;;5.03;;
33413;SDS011;60055;41.884;12.534;2023-04-24T09:34:47;20.50;;;5.28;;
33413;SDS011;60055;41.884;12.534;2023-04-24T09:37:28;22.00;;;5.15;;
33413;SDS011;60055;41.884;12.534;2023-04-24T09:40:10;21.77;;;5.25;;
33413;SDS011;60055;41.884;12.534;2023-04-24T09:42:39;24.70;;;5.47;;
33413;SDS011;60055;41.884;12.534;2023-04-24T09:45:09;28.50;;;5.97;;
33413;SDS011;60055;41.884;12.534;2023-04-24T09:47:38;25.73;;;5.68;;
33413;SDS011;60055;41.884;12.534;2023-04-24T09:50:11;26.70;;;5.85;;
33413;SDS011;60055;41.884;12.534;2023-04-24T09:52:41;28.70;;;5.85;;
33413;SDS011;60055;41.884;12.534;2023-04-24T09:55:12;23.88;;;5.47;;
33413;SDS011;60055;41.884;12.534;2023-04-24T09:57:47;21.52;;;5.05;;
33413;SDS011;60055;41.884;12.534;2023-04-24T10:00:23;31.30;;;6.20;;
33413;SDS011;60055;41.884;12.534;2023-04-24T10:02:58;28.80;;;5.93;;
33413;SDS011;60055;41.884;12.534;2023-04-24T10:05:29;21.85;;;5.05;;
33413;SDS011;60055;41.884;12.534;2023-04-24T10:07:57;26.70;;;5.40;;
33413;SDS011;60055;41.884;12.534;2023-04-24T10:10:43;20.08;;;4.97;;
33413;SDS011;60055;41.884;12.534;2023-04-24T10:13:10;21.17;;;5.18;;
33413;SDS011;60055;41.884;12.534;2023-04-24T10:15:37;21.65;;;5.97;;
33413;SDS011;60055;41.884;12.534;2023-04-24T10:18:05;23.88;;;5.05;;
33413;SDS011;60055;41.884;12.534;2023-04-24T10:20:31;24.50;;;4.90;;
33413;SDS011;60055;41.884;12.534;2023-04-24T10:22:58;21.20;;;5.00;;
33413;SDS011;60055;41.884;12.534;2023-04-24T10:25:34;19.05;;;4.82;;
33413;SDS011;60055;41.884;12.534;2023-04-24T10:28:01;18.55;;;5.25;;
33413;SDS011;60055;41.884;12.534;2023-04-24T10:30:28;25.38;;;4.63;;
33413;SDS011;60055;41.884;12.534;2023-04-24T10:32:55;19.30;;;5.38;;
33413;SDS011;60055;41.884;12.534;2023-04-24T10:35:21;22.58;;;4.47;;
33413;SDS011;60055;41.884;12.534;2023-04-24T10:37:51;37.63;;;5.95;;
33413;SDS011;60055;41.884;12.534;2023-04-24T10:40:25;28.05;;;4.88;;
33413;SDS011;60055;41.884;12.534;2023-04-24T10:43:04;22.65;;;4.57;;
33413;SDS011;60055;41.884;12.534;2023-04-24T10:45:32;31.90;;;5.70;;
33413;SDS011;60055;41.884;12.534;2023-04-24T10:47:59;28.90;;;5.97;;
33413;SDS011;60055;41.884;12.534;2023-04-24T10:50:34;35.67;;;5.20;;
33413;SDS011;60055;41.884;12.534;2023-04-24T10:53:12;24.75;;;5.07;;
33413;SDS011;60055;41.884;12.534;2023-04-24T10:55:52;29.42;;;5.88;;
33413;SDS011;60055;41.884;12.534;2023-04-24T10:58:24;25.25;;;5.30;;
33413;SDS011;60055;41.884;12.534;2023-04-24T11:01:00;31.95;;;5.07;;
33413;SDS011;60055;41.884;12.534;2023-04-24T11:06:05;27.70;;;4.88;;
33413;SDS011;60055;41.884;12.534;2023-04-24T11:08:32;25.23;;;4.72;;
33413;SDS011;60055;41.884;12.534;2023-04-24T11:11:12;23.00;;;4.07;;
33413;SDS011;60055;41.884;12.534;2023-04-24T11:16:26;25.50;;;4.40;;
33413;SDS011;60055;41.884;12.534;2023-04-24T11:19:09;30.58;;;4.70;;
33413;SDS011;60055;41.884;12.534;2023-04-24T11:21:42;25.60;;;4.20;;
33413;SDS011;60055;41.884;12.534;2023-04-24T11:29:58;24.77;;;4.10;;
33413;SDS011;60055;41.884;12.534;2023-04-24T11:35:12;23.58;;;4.32;;
33413;SDS011;60055;41.884;12.534;2023-04-24T11:37:42;25.80;;;5.10;;
33413;SDS011;60055;41.884;12.534;2023-04-24T11:40:11;23.20;;;3.75;;
33413;SDS011;60055;41.884;12.534;2023-04-24T11:42:39;26.42;;;5.03;;
33413;SDS011;60055;41.884;12.534;2023-04-24T11:45:10;24.90;;;4.47;;
33413;SDS011;60055;41.884;12.534;2023-04-24T11:47:38;26.58;;;4.80;;
33413;SDS011;60055;41.884;12.534;2023-04-24T11:50:05;22.17;;;4.47;;
33413;SDS011;60055;41.884;12.534;2023-04-24T11:52:33;22.20;;;3.88;;
33413;SDS011;60055;41.884;12.534;2023-04-24T11:55:01;24.63;;;4.50;;
33413;SDS011;60055;41.884;12.534;2023-04-24T11:57:28;24.30;;;4.32;;
33413;SDS011;60055;41.884;12.534;2023-04-24T11:59:59;27.25;;;4.03;;
33413;SDS011;60055;41.884;12.534;2023-04-24T12:02:25;23.13;;;4.07;;
33413;SDS011;60055;41.884;12.534;2023-04-24T12:04:54;18.70;;;3.90;;
33413;SDS011;60055;41.884;12.534;2023-04-24T12:07:21;20.52;;;3.58;;
33413;SDS011;60055;41.884;12.534;2023-04-24T12:09:48;19.77;;;3.20;;
33413;SDS011;60055;41.884;12.534;2023-04-24T12:12:16;25.00;;;4.22;;
33413;SDS011;60055;41.884;12.534;2023-04-24T12:14:43;25.10;;;3.83;;
33413;SDS011;60055;41.884;12.534;2023-04-24T12:17:08;20.55;;;3.33;;
33413;SDS011;60055;41.884;12.534;2023-04-24T12:19:34;15.75;;;3.65;;
33413;SDS011;60055;41.884;12.534;2023-04-24T12:22:03;18.42;;;3.63;;
33413;SDS011;60055;41.884;12.534;2023-04-24T12:24:30;14.52;;;3.17;;
33413;SDS011;60055;41.884;12.534;2023-04-24T12:26:56;17.70;;;3.22;;
33413;SDS011;60055;41.884;12.534;2023-04-24T12:29:23;19.80;;;3.53;;
33413;SDS011;60055;41.884;12.534;2023-04-24T12:31:50;18.05;;;3.50;;
33413;SDS011;60055;41.884;12.534;2023-04-24T12:34:23;22.52;;;3.65;;
33413;SDS011;60055;41.884;12.534;2023-04-24T12:36:50;23.52;;;3.80;;
33413;SDS011;60055;41.884;12.534;2023-04-24T12:39:17;19.65;;;4.00;;
33413;SDS011;60055;41.884;12.534;2023-04-24T12:41:50;20.23;;;4.13;;
33413;SDS011;60055;41.884;12.534;2023-04-24T12:44:28;20.73;;;3.72;;
33413;SDS011;60055;41.884;12.534;2023-04-24T12:46:57;27.00;;;3.97;;
33413;SDS011;60055;41.884;12.534;2023-04-24T12:49:23;22.08;;;4.20;;
33413;SDS011;60055;41.884;12.534;2023-04-24T12:51:48;28.70;;;4.47;;
33413;SDS011;60055;41.884;12.534;2023-04-24T12:54:13;27.48;;;4.10;;
33413;SDS011;60055;41.884;12.534;2023-04-24T12:56:39;22.73;;;3.75;;
33413;SDS011;60055;41.884;12.534;2023-04-24T12:59:04;25.70;;;4.32;;
33413;SDS011;60055;41.884;12.534;2023-04-24T13:01:30;23.15;;;4.50;;
33413;SDS011;60055;41.884;12.534;2023-04-24T13:03:56;23.08;;;4.57;;
33413;SDS011;60055;41.884;12.534;2023-04-24T13:06:21;20.63;;;4.10;;
33413;SDS011;60055;41.884;12.534;2023-04-24T13:08:46;25.40;;;4.10;;
33413;SDS011;60055;41.884;12.534;2023-04-24T13:11:13;25.08;;;4.53;;
33413;SDS011;60055;41.884;12.534;2023-04-24T13:13:39;24.38;;;4.68;;
33413;SDS011;60055;41.884;12.534;2023-04-24T13:16:04;19.42;;;3.95;;
33413;SDS011;60055;41.884;12.534;2023-04-24T13:18:30;22.25;;;4.32;;
33413;SDS011;60055;41.884;12.534;2023-04-24T13:20:55;25.75;;;4.60;;
33413;SDS011;60055;41.884;12.534;2023-04-24T13:23:21;24.08;;;4.45;;
33413;SDS011;60055;41.884;12.534;2023-04-24T13:25:47;21.58;;;4.15;;
33413;SDS011;60055;41.884;12.534;2023-04-24T13:28:13;23.35;;;3.83;;
33413;SDS011;60055;41.884;12.534;2023-04-24T13:30:38;21.25;;;4.13;;
33413;SDS011;60055;41.884;12.534;2023-04-24T13:33:04;23.05;;;3.75;;
33413;SDS011;60055;41.884;12.534;2023-04-24T13:35:29;16.48;;;3.47;;
33413;SDS011;60055;41.884;12.534;2023-04-24T13:37:55;19.75;;;3.30;;
33413;SDS011;60055;41.884;12.534;2023-04-24T13:40:21;22.40;;;3.67;;
33413;SDS011;60055;41.884;12.534;2023-04-24T13:42:46;20.17;;;4.00;;
33413;SDS011;60055;41.884;12.534;2023-04-24T13:45:12;19.40;;;3.42;;
33413;SDS011;60055;41.884;12.534;2023-04-24T13:47:37;20.48;;;3.80;;
33413;SDS011;60055;41.884;12.534;2023-04-24T13:50:05;21.52;;;4.18;;
33413;SDS011;60055;41.884;12.534;2023-04-24T13:52:32;22.67;;;4.15;;
33413;SDS011;60055;41.884;12.534;2023-04-24T13:54:57;18.33;;;4.03;;
33413;SDS011;60055;41.884;12.534;2023-04-24T13:57:23;18.45;;;3.85;;
33413;SDS011;60055;41.884;12.534;2023-04-24T13:59:48;15.45;;;2.83;;
33413;SDS011;60055;41.884;12.534;2023-04-24T14:02:14;19.70;;;3.70;;
33413;SDS011;60055;41.884;12.534;2023-04-24T14:04:39;26.98;;;4.65;;
33413;SDS011;60055;41.884;12.534;2023-04-24T14:07:05;20.35;;;4.30;;
33413;SDS011;60055;41.884;12.534;2023-04-24T14:09:30;19.13;;;3.70;;
33413;SDS011;60055;41.884;12.534;2023-04-24T14:11:55;21.08;;;2.97;;
33413;SDS011;60055;41.884;12.534;2023-04-24T14:14:21;17.38;;;3.13;;
33413;SDS011;60055;41.884;12.534;2023-04-24T14:16:46;20.02;;;3.50;;
33413;SDS011;60055;41.884;12.534;2023-04-24T14:19:12;19.48;;;3.83;;
33413;SDS011;60055;41.884;12.534;2023-04-24T14:21:37;17.17;;;3.25;;
33413;SDS011;60055;41.884;12.534;2023-04-24T14:24:02;20.27;;;4.10;;
33413;SDS011;60055;41.884;12.534;2023-04-24T14:26:28;25.35;;;4.85;;
33413;SDS011;60055;41.884;12.534;2023-04-24T14:28:53;28.65;;;4.57;;
33413;SDS011;60055;41.884;12.534;2023-04-24T14:31:20;17.67;;;3.78;;